Time;durP1;ratioP1;P1;durP2;ratioP2;P2;SDS_P1;SDS_P2;PMS_P1;PMS_P2;Temp;Humidity;BMP_temperature;BMP_pressure;BME280_temperature;BME280_humidity;BME280_pressure;Samples;Min_cycle;Max_cycle;Signal;HPM_P1;HPM_P2
2023/07/19 00:00:24;;;;;;;4.80;3.37;;;;;;;;;;5083031;28;20477;-63
2023/07/19 00:02:51;;;;;;;6.30;3.70;;;;;;;;;;5082139;28;20890;-62
2023/07/19 00:05:17;;;;;;;6.37;3.60;;;;;;;;;;5081663;28;20472;-63
2023/07/19 00:07:43;;;;;;;5.63;3.63;;;;;;;;;;5082057;28;20480;-62
2023/07/19 00:10:19;;;;;;;3.93;3.30;;;;;;;;;;5082424;28;20486;-62
2023/07/19 00:12:45;;;;;;;4.27;3.40;;;;;;;;;;5082065;28;20657;-62
2023/07/19 00:15:11;;;;;;;6.03;4.03;;;;;;;;;;5082384;28;20523;-62
2023/07/19 00:17:38;;;;;;;3.97;3.57;;;;;;;;;;5081983;28;20983;-62
2023/07/19 00:20:05;;;;;;;7.17;3.60;;;;;;;;;;5082320;28;20482;-62
2023/07/19 00:22:32;;;;;;;5.60;3.27;;;;;;;;;;5082186;28;21058;-62
2023/07/19 00:24:58;;;;;;;4.53;3.40;;;;;;;;;;5077810;28;20535;-62
2023/07/19 00:27:26;;;;;;;5.20;3.60;;;;;;;;;;5078234;28;20524;-62
2023/07/19 00:29:52;;;;;;;6.23;3.83;;;;;;;;;;5082340;28;20535;-62
2023/07/19 00:32:19;;;;;;;6.73;3.37;;;;;;;;;;5081387;28;20450;-62
2023/07/19 00:34:45;;;;;;;4.37;3.43;;;;;;;;;;5081645;28;20523;-62
2023/07/19 00:37:12;;;;;;;3.53;3.03;;;;;;;;;;5081281;28;20512;-62
2023/07/19 00:39:38;;;;;;;4.73;3.23;;;;;;;;;;5082237;28;20511;-62
2023/07/19 00:42:05;;;;;;;4.17;3.30;;;;;;;;;;5081062;28;21011;-62
2023/07/19 00:44:33;;;;;;;4.57;3.00;;;;;;;;;;5082109;28;20476;-62
2023/07/19 00:46:59;;;;;;;5.33;3.10;;;;;;;;;;5081147;28;20478;-62
2023/07/19 00:49:26;;;;;;;4.47;2.80;;;;;;;;;;5081249;28;20448;-62
2023/07/19 00:51:52;;;;;;;7.20;3.80;;;;;;;;;;5081114;28;20507;-62
2023/07/19 00:54:19;;;;;;;4.50;3.50;;;;;;;;;;5081507;28;20563;-62
2023/07/19 00:56:45;;;;;;;6.13;3.40;;;;;;;;;;5080924;28;20480;-62
2023/07/19 00:59:13;;;;;;;5.40;3.30;;;;;;;;;;5081614;28;20515;-62
2023/07/19 01:01:42;;;;;;;3.23;2.97;;;;;;;;;;5081341;28;20491;-62
2023/07/19 01:04:08;;;;;;;3.60;2.97;;;;;;;;;;5081339;28;20474;-62
2023/07/19 01:06:35;;;;;;;5.77;3.10;;;;;;;;;;5080434;28;20470;-62
2023/07/19 01:09:01;;;;;;;5.07;3.00;;;;;;;;;;5081267;28;20480;-63
2023/07/19 01:11:28;;;;;;;6.47;3.13;;;;;;;;;;5081120;28;20587;-62
2023/07/19 01:13:55;;;;;;;3.80;3.40;;;;;;;;;;5080968;28;20464;-62
2023/07/19 01:16:21;;;;;;;5.10;3.40;;;;;;;;;;5080739;28;20451;-62
2023/07/19 01:18:49;;;;;;;4.23;3.20;;;;;;;;;;5081186;28;20483;-62
2023/07/19 01:21:15;;;;;;;4.60;3.70;;;;;;;;;;5080957;28;20462;-63
2023/07/19 01:23:43;;;;;;;3.30;3.00;;;;;;;;;;5080858;28;20545;-62
2023/07/19 01:26:09;;;;;;;5.07;3.03;;;;;;;;;;5080455;28;20451;-62
2023/07/19 01:28:36;;;;;;;4.17;2.77;;;;;;;;;;5080829;28;20480;-62
2023/07/19 01:31:04;;;;;;;3.40;2.77;;;;;;;;;;5073625;28;20907;-62
2023/07/19 01:33:30;;;;;;;4.07;3.23;;;;;;;;;;5080026;28;20472;-62
2023/07/19 01:35:57;;;;;;;2.83;2.53;;;;;;;;;;5079855;28;20544;-62
2023/07/19 01:38:23;;;;;;;3.77;2.57;;;;;;;;;;5080770;28;20535;-62
2023/07/19 01:40:51;;;;;;;2.67;2.47;;;;;;;;;;5080024;28;20520;-62
2023/07/19 01:43:17;;;;;;;3.00;2.70;;;;;;;;;;5080824;28;20539;-62
2023/07/19 01:45:43;;;;;;;2.70;2.50;;;;;;;;;;5080489;28;20455;-62
2023/07/19 01:48:10;;;;;;;3.60;2.33;;;;;;;;;;5080400;28;20488;-62
2023/07/19 01:50:36;;;;;;;4.27;2.83;;;;;;;;;;5080800;28;20464;-62
2023/07/19 01:53:03;;;;;;;3.40;2.70;;;;;;;;;;5080193;28;20539;-62
2023/07/19 01:55:29;;;;;;;4.73;3.10;;;;;;;;;;5080305;28;20467;-62
2023/07/19 01:57:57;;;;;;;3.80;2.60;;;;;;;;;;5080195;28;20491;-62
2023/07/19 02:00:23;;;;;;;4.13;2.80;;;;;;;;;;5080701;28;20523;-62
2023/07/19 02:02:50;;;;;;;3.00;2.40;;;;;;;;;;5079725;28;20587;-63
2023/07/19 02:05:17;;;;;;;5.63;3.10;;;;;;;;;;5079934;28;20479;-62
2023/07/19 02:07:44;;;;;;;5.20;2.83;;;;;;;;;;5079898;28;20452;-62
2023/07/19 02:10:11;;;;;;;3.60;2.60;;;;;;;;;;5077015;28;20991;-62
2023/07/19 02:12:37;;;;;;;5.27;2.83;;;;;;;;;;5079590;28;20467;-62
2023/07/19 02:15:06;;;;;;;3.20;2.57;;;;;;;;;;5079855;28;20448;-62
2023/07/19 02:17:32;;;;;;;4.23;2.67;;;;;;;;;;5075451;28;20540;-62
2023/07/19 02:19:59;;;;;;;4.20;2.60;;;;;;;;;;5080018;28;20475;-62
2023/07/19 02:22:26;;;;;;;3.00;2.70;;;;;;;;;;5079829;28;20496;-62
2023/07/19 02:24:52;;;;;;;4.50;3.00;;;;;;;;;;5080051;28;20855;-62
2023/07/19 02:27:18;;;;;;;3.47;3.03;;;;;;;;;;5079177;28;20574;-62
2023/07/19 02:29:45;;;;;;;3.93;2.70;;;;;;;;;;5079830;28;20448;-62
2023/07/19 02:32:13;;;;;;;5.17;3.30;;;;;;;;;;5074988;28;20915;-62
2023/07/19 02:34:40;;;;;;;6.30;3.17;;;;;;;;;;5079559;28;20551;-62
2023/07/19 02:37:06;;;;;;;3.70;3.10;;;;;;;;;;5078942;28;20483;-62
2023/07/19 02:39:32;;;;;;;3.47;2.70;;;;;;;;;;5080099;28;20523;-62
2023/07/19 02:42:00;;;;;;;5.30;3.30;;;;;;;;;;5078967;28;20452;-62
2023/07/19 02:44:26;;;;;;;4.07;3.23;;;;;;;;;;5079788;28;20452;-62
2023/07/19 02:46:53;;;;;;;3.50;2.77;;;;;;;;;;5079347;28;20483;-62
2023/07/19 02:49:20;;;;;;;4.77;3.07;;;;;;;;;;5079625;28;20487;-62
2023/07/19 02:51:47;;;;;;;5.77;3.60;;;;;;;;;;5079796;28;20508;-62
2023/07/19 02:54:13;;;;;;;4.70;3.47;;;;;;;;;;5079349;28;20481;-62
2023/07/19 02:56:40;;;;;;;3.63;2.80;;;;;;;;;;5079248;28;20463;-62
2023/07/19 02:59:06;;;;;;;4.00;3.00;;;;;;;;;;5079445;28;20527;-62
2023/07/19 03:01:32;;;;;;;6.00;3.73;;;;;;;;;;5079890;28;20507;-62
2023/07/19 03:03:59;;;;;;;3.93;3.37;;;;;;;;;;5079190;28;20523;-62
2023/07/19 03:06:27;;;;;;;3.93;3.53;;;;;;;;;;5078140;28;20448;-62
2023/07/19 03:08:54;;;;;;;5.10;3.80;;;;;;;;;;5079083;28;20444;-62
2023/07/19 03:11:20;;;;;;;5.00;4.00;;;;;;;;;;5078897;28;20570;-62
2023/07/19 03:13:47;;;;;;;5.97;3.67;;;;;;;;;;5077650;28;20516;-62
2023/07/19 03:16:13;;;;;;;4.73;3.70;;;;;;;;;;5079270;28;20448;-62
2023/07/19 03:18:39;;;;;;;5.87;4.17;;;;;;;;;;5079113;28;20547;-62
2023/07/19 03:21:06;;;;;;;5.30;3.90;;;;;;;;;;5079263;28;20546;-62
2023/07/19 03:23:34;;;;;;;6.10;4.13;;;;;;;;;;5079157;28;20551;-63
2023/07/19 03:26:00;;;;;;;6.00;4.07;;;;;;;;;;5078406;28;20482;-62
2023/07/19 03:28:28;;;;;;;6.20;4.80;;;;;;;;;;5078637;28;20514;-62
2023/07/19 03:30:55;;;;;;;6.57;4.20;;;;;;;;;;5079531;28;20475;-62
2023/07/19 03:33:22;;;;;;;5.60;4.03;;;;;;;;;;5078772;28;20450;-62
2023/07/19 03:35:48;;;;;;;6.13;4.10;;;;;;;;;;5078375;28;20479;-62
2023/07/19 03:38:15;;;;;;;7.80;4.63;;;;;;;;;;5078746;28;20456;-63
2023/07/19 03:40:42;;;;;;;7.40;4.40;;;;;;;;;;5078520;28;20479;-63
2023/07/19 03:43:09;;;;;;;7.30;4.40;;;;;;;;;;5078327;28;20547;-63
2023/07/19 03:45:35;;;;;;;4.30;3.90;;;;;;;;;;5078436;28;20479;-62
2023/07/19 03:48:02;;;;;;;5.80;4.43;;;;;;;;;;5078301;28;20903;-62
2023/07/19 03:50:28;;;;;;;5.53;4.07;;;;;;;;;;5078962;28;20452;-62
2023/07/19 03:52:55;;;;;;;5.17;4.23;;;;;;;;;;5078755;28;20479;-62
2023/07/19 03:55:21;;;;;;;6.23;3.87;;;;;;;;;;5078914;28;20451;-62
2023/07/19 03:57:49;;;;;;;6.30;4.07;;;;;;;;;;5078255;28;20463;-62
2023/07/19 04:00:16;;;;;;;5.60;4.37;;;;;;;;;;5078987;28;20471;-63
2023/07/19 04:02:42;;;;;;;3.87;3.47;;;;;;;;;;5078600;28;20518;-62
2023/07/19 04:05:09;;;;;;;5.17;3.97;;;;;;;;;;5078248;28;20507;-62
2023/07/19 04:07:35;;;;;;;4.37;3.97;;;;;;;;;;5078076;28;20456;-62
2023/07/19 04:10:01;;;;;;;20.73;4.80;;;;;;;;;;5078264;28;20539;-62
2023/07/19 04:12:28;;;;;;;7.57;4.00;;;;;;;;;;5078264;28;20543;-62
2023/07/19 04:14:56;;;;;;;4.77;4.27;;;;;;;;;;5078620;28;20464;-62
2023/07/19 04:17:22;;;;;;;5.57;4.00;;;;;;;;;;5078576;28;20482;-62
2023/07/19 04:19:49;;;;;;;6.00;4.27;;;;;;;;;;5078735;28;20491;-62
2023/07/19 04:22:15;;;;;;;5.50;3.80;;;;;;;;;;5078408;28;20475;-62
2023/07/19 04:24:42;;;;;;;5.47;4.57;;;;;;;;;;5080041;28;20478;-62
2023/07/19 04:27:08;;;;;;;7.53;3.80;;;;;;;;;;5081831;28;20452;-62
2023/07/19 04:29:34;;;;;;;8.73;3.07;;;;;;;;;;5082192;28;20559;-62
2023/07/19 04:32:02;;;;;;;6.00;3.67;;;;;;;;;;5082049;28;20542;-62
2023/07/19 04:34:28;;;;;;;4.60;3.07;;;;;;;;;;5081638;28;20460;-62
2023/07/19 04:36:55;;;;;;;4.87;3.87;;;;;;;;;;5081628;28;21032;-63
2023/07/19 04:39:21;;;;;;;4.60;4.10;;;;;;;;;;5069219;28;20448;-63
2023/07/19 04:41:48;;;;;;;4.10;2.80;;;;;;;;;;5081882;28;20456;-62
2023/07/19 04:44:15;;;;;;;5.70;3.70;;;;;;;;;;5081597;28;21012;-62
2023/07/19 04:46:42;;;;;;;4.63;4.00;;;;;;;;;;5081840;28;20467;-62
2023/07/19 04:49:09;;;;;;;5.50;3.57;;;;;;;;;;5082193;28;20508;-62
2023/07/19 04:51:36;;;;;;;4.03;3.63;;;;;;;;;;5082001;28;20941;-62
2023/07/19 04:54:02;;;;;;;6.27;4.00;;;;;;;;;;5081935;28;20455;-63
2023/07/19 04:56:29;;;;;;;4.80;3.63;;;;;;;;;;5081391;28;20495;-62
2023/07/19 04:58:55;;;;;;;5.17;3.30;;;;;;;;;;5081728;28;21018;-62
2023/07/19 05:01:22;;;;;;;5.10;3.70;;;;;;;;;;5081458;28;20816;-63
2023/07/19 05:03:48;;;;;;;10.10;3.93;;;;;;;;;;5080767;28;20579;-63
2023/07/19 05:06:16;;;;;;;4.43;3.37;;;;;;;;;;5080117;28;20886;-62
2023/07/19 05:08:43;;;;;;;6.57;3.03;;;;;;;;;;5081609;28;20471;-62
2023/07/19 05:11:09;;;;;;;5.70;3.73;;;;;;;;;;5081447;28;20456;-63
2023/07/19 05:13:36;;;;;;;7.27;2.90;;;;;;;;;;5081184;28;20476;-63
2023/07/19 05:16:03;;;;;;;9.77;4.70;;;;;;;;;;5081368;28;20466;-62
2023/07/19 05:18:29;;;;;;;6.97;4.07;;;;;;;;;;5081081;28;20455;-62
2023/07/19 05:20:56;;;;;;;4.80;3.20;;;;;;;;;;5081229;28;20480;-62
2023/07/19 05:23:24;;;;;;;5.40;4.00;;;;;;;;;;5081046;28;20480;-62
2023/07/19 05:25:50;;;;;;;8.40;4.20;;;;;;;;;;5080247;28;21423;-62
2023/07/19 05:28:17;;;;;;;8.57;4.10;;;;;;;;;;5080947;28;20479;-63
2023/07/19 05:30:44;;;;;;;6.97;3.90;;;;;;;;;;5081067;28;20451;-63
2023/07/19 05:33:10;;;;;;;7.20;4.00;;;;;;;;;;5077378;28;20467;-63
2023/07/19 05:35:37;;;;;;;7.63;3.70;;;;;;;;;;5077263;28;20508;-62
2023/07/19 05:38:04;;;;;;;8.97;4.33;;;;;;;;;;5077436;28;20496;-62
2023/07/19 05:40:32;;;;;;;6.40;3.90;;;;;;;;;;5080834;28;20478;-63
2023/07/19 05:42:58;;;;;;;6.63;3.90;;;;;;;;;;5076611;28;20483;-63
2023/07/19 05:45:25;;;;;;;5.33;3.87;;;;;;;;;;5080094;28;20482;-63
2023/07/19 05:47:51;;;;;;;5.10;3.83;;;;;;;;;;5075729;28;20597;-63
2023/07/19 05:50:19;;;;;;;11.53;3.80;;;;;;;;;;5080346;28;20507;-62
2023/07/19 05:52:45;;;;;;;6.03;4.07;;;;;;;;;;5080575;28;20459;-63
2023/07/19 05:55:11;;;;;;;5.97;3.40;;;;;;;;;;5079654;28;20440;-62
2023/07/19 05:57:39;;;;;;;5.13;3.47;;;;;;;;;;5077647;28;20463;-63
2023/07/19 06:00:11;;;;;;;6.50;3.60;;;;;;;;;;5075432;28;20498;-63
2023/07/19 06:02:37;;;;;;;6.87;3.73;;;;;;;;;;5074817;28;20495;-62
2023/07/19 06:05:04;;;;;;;6.43;3.43;;;;;;;;;;5078508;28;20546;-62
2023/07/19 06:07:30;;;;;;;4.23;3.50;;;;;;;;;;5078735;28;20508;-63
2023/07/19 06:09:57;;;;;;;3.80;2.90;;;;;;;;;;5078419;28;20747;-62
2023/07/19 06:12:23;;;;;;;6.40;3.50;;;;;;;;;;5078590;28;20539;-63
2023/07/19 06:14:51;;;;;;;4.43;3.30;;;;;;;;;;5078760;28;20444;-63
2023/07/19 06:17:17;;;;;;;5.87;2.80;;;;;;;;;;5078451;28;20567;-62
2023/07/19 06:19:44;;;;;;;4.70;3.37;;;;;;;;;;5079136;28;20523;-62
2023/07/19 06:22:10;;;;;;;5.93;3.20;;;;;;;;;;5078956;28;20474;-62
2023/07/19 06:24:36;;;;;;;8.30;3.40;;;;;;;;;;5078481;28;20498;-62
2023/07/19 06:27:03;;;;;;;4.77;3.00;;;;;;;;;;5078202;28;20451;-62
2023/07/19 06:29:29;;;;;;;5.70;3.23;;;;;;;;;;5078706;28;20463;-63
2023/07/19 06:31:57;;;;;;;6.37;3.70;;;;;;;;;;5078573;28;20519;-62
2023/07/19 06:34:24;;;;;;;4.43;3.10;;;;;;;;;;5078488;28;20956;-62
2023/07/19 06:36:51;;;;;;;5.77;3.90;;;;;;;;;;5077365;28;20448;-62
2023/07/19 06:39:17;;;;;;;11.90;4.90;;;;;;;;;;5077059;28;20451;-62
2023/07/19 06:41:44;;;;;;;8.60;4.20;;;;;;;;;;5078451;28;20547;-63
2023/07/19 06:44:12;;;;;;;6.33;4.37;;;;;;;;;;5078871;28;20487;-62
2023/07/19 06:46:38;;;;;;;7.50;4.30;;;;;;;;;;5077981;28;20995;-62
2023/07/19 06:49:06;;;;;;;6.53;3.50;;;;;;;;;;5078877;28;20490;-62
2023/07/19 06:51:32;;;;;;;7.13;4.13;;;;;;;;;;5078016;28;20519;-62
2023/07/19 06:53:59;;;;;;;6.23;3.53;;;;;;;;;;5078230;28;20471;-62
2023/07/19 06:56:25;;;;;;;7.23;4.33;;;;;;;;;;5078341;28;20717;-62
2023/07/19 06:58:51;;;;;;;6.23;4.30;;;;;;;;;;5075587;28;20583;-62
2023/07/19 07:01:18;;;;;;;8.13;3.80;;;;;;;;;;5077734;28;20503;-62
2023/07/19 07:03:44;;;;;;;6.13;3.90;;;;;;;;;;5077363;28;20515;-62
2023/07/19 07:06:12;;;;;;;7.13;3.60;;;;;;;;;;5077757;28;20504;-62
2023/07/19 07:08:38;;;;;;;4.93;4.03;;;;;;;;;;5076714;28;20726;-63
2023/07/19 07:11:05;;;;;;;8.57;4.30;;;;;;;;;;5077933;28;20943;-63
2023/07/19 07:13:31;;;;;;;7.37;4.10;;;;;;;;;;5078541;28;20475;-63
2023/07/19 07:15:58;;;;;;;5.90;4.20;;;;;;;;;;5077554;28;20480;-62
2023/07/19 07:18:25;;;;;;;6.20;4.07;;;;;;;;;;5077534;28;20505;-62
2023/07/19 07:20:51;;;;;;;10.40;4.20;;;;;;;;;;5078375;28;20440;-62
2023/07/19 07:23:19;;;;;;;5.27;3.77;;;;;;;;;;5077247;28;20444;-63
2023/07/19 07:25:45;;;;;;;5.60;3.93;;;;;;;;;;5078268;28;20571;-63
2023/07/19 07:28:12;;;;;;;7.80;4.13;;;;;;;;;;5077564;28;20447;-63
2023/07/19 07:30:39;;;;;;;6.67;3.60;;;;;;;;;;5077429;28;20784;-63
2023/07/19 07:33:06;;;;;;;5.80;4.20;;;;;;;;;;5077791;28;20444;-63
2023/07/19 07:35:32;;;;;;;7.13;4.63;;;;;;;;;;5074696;28;20486;-63
2023/07/19 07:37:59;;;;;;;7.53;4.27;;;;;;;;;;5077358;28;20756;-63
2023/07/19 07:40:26;;;;;;;4.97;4.20;;;;;;;;;;5078192;28;20471;-63
2023/07/19 07:42:53;;;;;;;6.83;3.80;;;;;;;;;;5077287;28;20963;-63
2023/07/19 07:45:19;;;;;;;5.53;3.33;;;;;;;;;;5077458;28;20805;-63
2023/07/19 07:47:46;;;;;;;5.70;4.27;;;;;;;;;;5077867;28;20463;-63
2023/07/19 07:50:12;;;;;;;5.90;4.13;;;;;;;;;;5077980;28;20456;-63
2023/07/19 07:52:39;;;;;;;7.03;4.67;;;;;;;;;;5077445;28;20464;-63
2023/07/19 07:55:06;;;;;;;7.00;4.27;;;;;;;;;;5077360;28;20866;-63
2023/07/19 07:57:34;;;;;;;9.50;4.80;;;;;;;;;;5077441;28;20520;-63
2023/07/19 08:00:00;;;;;;;4.90;3.80;;;;;;;;;;5078977;28;20538;-63
2023/07/19 08:02:27;;;;;;;6.60;4.77;;;;;;;;;;5081592;28;20467;-63
2023/07/19 08:04:53;;;;;;;5.93;4.07;;;;;;;;;;5074808;28;20495;-63
2023/07/19 08:07:20;;;;;;;4.60;3.70;;;;;;;;;;5080521;28;20839;-63
2023/07/19 08:09:46;;;;;;;7.80;3.23;;;;;;;;;;5081392;28;20496;-63
2023/07/19 08:12:14;;;;;;;7.93;3.60;;;;;;;;;;5080883;28;20459;-63
2023/07/19 08:14:41;;;;;;;5.30;3.60;;;;;;;;;;5081807;28;20475;-63
2023/07/19 08:17:08;;;;;;;4.27;3.07;;;;;;;;;;5080367;28;20475;-63
2023/07/19 08:19:34;;;;;;;4.17;3.53;;;;;;;;;;5081294;28;20487;-63
2023/07/19 08:22:03;;;;;;;4.77;2.87;;;;;;;;;;5081560;28;20455;-63
2023/07/19 08:24:29;;;;;;;6.30;3.70;;;;;;;;;;5080658;28;20499;-64
2023/07/19 08:26:56;;;;;;;9.00;3.40;;;;;;;;;;5079727;28;20507;-63
2023/07/19 08:29:24;;;;;;;6.43;3.73;;;;;;;;;;5074372;28;20465;-63
2023/07/19 08:31:51;;;;;;;5.00;3.50;;;;;;;;;;5079782;28;20463;-63
2023/07/19 08:34:18;;;;;;;6.17;3.33;;;;;;;;;;5080559;28;20456;-64
2023/07/19 08:36:45;;;;;;;6.00;3.70;;;;;;;;;;5080060;28;20984;-63
2023/07/19 08:39:12;;;;;;;6.70;3.37;;;;;;;;;;5079150;28;20517;-63
2023/07/19 08:41:38;;;;;;;8.60;4.13;;;;;;;;;;5080435;28;20467;-63
2023/07/19 08:44:05;;;;;;;11.53;4.70;;;;;;;;;;5080317;28;20535;-63
2023/07/19 08:46:33;;;;;;;10.13;4.50;;;;;;;;;;5080425;28;20478;-63
2023/07/19 08:49:02;;;;;;;6.20;4.30;;;;;;;;;;5080621;28;20512;-63
2023/07/19 08:51:29;;;;;;;10.07;4.57;;;;;;;;;;5080540;28;20459;-63
2023/07/19 08:53:55;;;;;;;8.83;3.80;;;;;;;;;;5080069;28;20518;-63
2023/07/19 08:56:22;;;;;;;9.70;4.10;;;;;;;;;;5080400;28;20476;-63
2023/07/19 08:58:48;;;;;;;6.27;3.13;;;;;;;;;;5076136;28;20968;-63
2023/07/19 09:01:15;;;;;;;5.60;3.10;;;;;;;;;;5079196;28;20517;-63
2023/07/19 09:03:41;;;;;;;5.63;2.90;;;;;;;;;;5080421;28;20489;-63
2023/07/19 09:06:09;;;;;;;4.70;2.70;;;;;;;;;;5078992;28;21079;-63
2023/07/19 09:08:36;;;;;;;7.53;2.87;;;;;;;;;;5079385;28;20448;-63
2023/07/19 09:11:03;;;;;;;3.37;2.40;;;;;;;;;;5078971;28;20454;-62
2023/07/19 09:13:31;;;;;;;5.47;2.43;;;;;;;;;;5080021;28;20490;-62
2023/07/19 09:15:57;;;;;;;5.50;2.53;;;;;;;;;;5079039;28;20448;-63
2023/07/19 09:18:28;;;;;;;5.83;2.80;;;;;;;;;;5079872;28;20452;-63
2023/07/19 09:20:57;;;;;;;6.20;3.53;;;;;;;;;;5080914;28;20448;-63
2023/07/19 09:23:25;;;;;;;5.07;3.10;;;;;;;;;;5079354;28;20478;-63
2023/07/19 09:25:52;;;;;;;8.83;3.80;;;;;;;;;;5080370;28;20507;-63
2023/07/19 09:28:20;;;;;;;6.40;3.30;;;;;;;;;;5079799;28;20449;-63
2023/07/19 09:30:54;;;;;;;5.53;3.37;;;;;;;;;;5080006;28;20496;-63
2023/07/19 09:33:20;;;;;;;6.03;4.47;;;;;;;;;;5079132;28;20467;-63
2023/07/19 09:35:46;;;;;;;6.00;3.73;;;;;;;;;;5079132;28;20488;-63
2023/07/19 09:38:13;;;;;;;7.50;3.90;;;;;;;;;;5079055;28;20548;-63
2023/07/19 09:40:41;;;;;;;4.33;3.23;;;;;;;;;;5079915;28;20579;-63
2023/07/19 09:43:08;;;;;;;8.50;3.37;;;;;;;;;;5079346;28;20479;-63
2023/07/19 09:45:34;;;;;;;6.50;4.47;;;;;;;;;;5079720;28;20472;-63
2023/07/19 09:48:02;;;;;;;3.90;2.80;;;;;;;;;;5079526;28;20475;-63
2023/07/19 09:50:29;;;;;;;5.83;3.23;;;;;;;;;;5079540;28;20502;-63
2023/07/19 09:52:56;;;;;;;7.37;3.20;;;;;;;;;;5078953;28;20454;-61
2023/07/19 09:55:22;;;;;;;4.50;2.80;;;;;;;;;;5070481;28;20534;-61
2023/07/19 09:57:50;;;;;;;5.30;2.80;;;;;;;;;;5079161;28;20535;-63
2023/07/19 10:00:17;;;;;;;8.60;2.97;;;;;;;;;;5078690;28;20463;-63
2023/07/19 10:02:44;;;;;;;7.20;3.43;;;;;;;;;;5079122;28;21035;-63
2023/07/19 10:05:11;;;;;;;10.10;4.03;;;;;;;;;;5074018;28;20468;-63
2023/07/19 10:07:37;;;;;;;4.80;3.10;;;;;;;;;;5077510;28;20459;-63
2023/07/19 10:10:04;;;;;;;3.83;2.27;;;;;;;;;;5079373;28;20451;-63
2023/07/19 10:12:31;;;;;;;4.00;1.80;;;;;;;;;;5078180;28;20456;-63
2023/07/19 10:15:02;;;;;;;10.33;2.00;;;;;;;;;;5078478;28;20484;-63
2023/07/19 10:17:29;;;;;;;5.67;1.80;;;;;;;;;;5077525;28;21024;-63
2023/07/19 10:20:05;;;;;;;3.07;1.80;;;;;;;;;;5078931;28;20539;-63
2023/07/19 10:22:53;;;;;;;3.87;1.63;;;;;;;;;;5076336;28;20448;-64
2023/07/19 10:25:24;;;;;;;4.67;2.10;;;;;;;;;;5072623;28;20537;-63
2023/07/19 10:28:00;;;;;;;4.10;2.23;;;;;;;;;;5078305;28;20463;-63
2023/07/19 10:30:45;;;;;;;4.13;2.33;;;;;;;;;;5078246;28;20617;-63
2023/07/19 10:33:13;;;;;;;6.23;2.00;;;;;;;;;;5078181;28;20494;-63
2023/07/19 10:35:40;;;;;;;4.90;2.30;;;;;;;;;;5077288;28;20494;-64
2023/07/19 10:38:12;;;;;;;3.80;1.93;;;;;;;;;;5078744;28;20515;-63
2023/07/19 10:40:39;;;;;;;6.60;2.20;;;;;;;;;;5077568;28;21215;-63
2023/07/19 10:43:05;;;;;;;6.03;1.80;;;;;;;;;;5077783;28;20855;-64
2023/07/19 10:45:31;;;;;;;3.90;1.93;;;;;;;;;;5078027;28;20567;-63
2023/07/19 10:47:59;;;;;;;2.70;1.60;;;;;;;;;;5078357;28;20523;-63
2023/07/19 10:50:27;;;;;;;7.70;1.83;;;;;;;;;;5075993;28;20491;-63
2023/07/19 10:52:53;;;;;;;5.13;2.40;;;;;;;;;;5077762;28;20534;-63
2023/07/19 10:55:19;;;;;;;5.93;2.00;;;;;;;;;;5078450;28;20460;-63
2023/07/19 10:57:47;;;;;;;3.53;1.83;;;;;;;;;;5077561;28;20475;-63
2023/07/19 11:00:14;;;;;;;4.80;2.30;;;;;;;;;;5078169;28;20824;-63
2023/07/19 11:02:40;;;;;;;9.20;2.77;;;;;;;;;;5078725;28;20850;-63
2023/07/19 11:05:08;;;;;;;4.40;1.77;;;;;;;;;;5077556;28;20551;-63
2023/07/19 11:07:36;;;;;;;4.90;1.70;;;;;;;;;;5077185;28;20478;-63
2023/07/19 11:10:02;;;;;;;3.97;1.93;;;;;;;;;;5078412;28;20452;-63
2023/07/19 11:12:30;;;;;;;6.83;2.30;;;;;;;;;;5077775;28;20452;-63
2023/07/19 11:14:58;;;;;;;4.40;2.13;;;;;;;;;;5079082;28;20448;-63
2023/07/19 11:17:25;;;;;;;5.03;2.60;;;;;;;;;;5078341;28;21089;-63
2023/07/19 11:19:52;;;;;;;12.93;2.97;;;;;;;;;;5078035;28;20452;-63
2023/07/19 11:22:21;;;;;;;4.50;2.00;;;;;;;;;;5074668;28;20456;-63
2023/07/19 11:24:49;;;;;;;4.10;2.17;;;;;;;;;;5071840;28;20528;-64
2023/07/19 11:27:16;;;;;;;5.63;2.33;;;;;;;;;;5077604;28;20454;-61
2023/07/19 11:29:43;;;;;;;3.50;1.67;;;;;;;;;;5078213;28;20459;-61
2023/07/19 11:32:13;;;;;;;5.27;2.00;;;;;;;;;;5078907;28;20448;-62
2023/07/19 11:34:45;;;;;;;6.10;2.00;;;;;;;;;;5078405;28;20495;-61
2023/07/19 11:37:16;;;;;;;6.17;2.00;;;;;;;;;;5082131;28;20579;-62
2023/07/19 11:39:42;;;;;;;4.80;1.90;;;;;;;;;;5082234;28;20483;-62
2023/07/19 11:42:10;;;;;;;6.60;2.00;;;;;;;;;;5081476;28;20470;-62
2023/07/19 11:44:42;;;;;;;5.93;1.83;;;;;;;;;;5082210;28;20494;-63
2023/07/19 11:47:09;;;;;;;4.30;2.20;;;;;;;;;;5082218;28;20481;-62
2023/07/19 11:49:35;;;;;;;3.80;1.87;;;;;;;;;;5081710;28;20478;-63
2023/07/19 11:52:02;;;;;;;4.63;2.03;;;;;;;;;;5081207;28;20454;-63
2023/07/19 11:54:28;;;;;;;3.90;1.93;;;;;;;;;;5076229;28;20452;-63
2023/07/19 11:56:55;;;;;;;3.87;1.90;;;;;;;;;;5080494;28;20479;-62
2023/07/19 11:59:24;;;;;;;3.70;2.10;;;;;;;;;;5081005;28;20590;-63
2023/07/19 12:01:50;;;;;;;7.40;2.40;;;;;;;;;;5081818;28;20440;-62
2023/07/19 12:04:17;;;;;;;8.23;1.70;;;;;;;;;;5081793;28;20847;-62
2023/07/19 12:06:44;;;;;;;5.53;2.40;;;;;;;;;;5081051;28;20541;-63
2023/07/19 12:09:13;;;;;;;4.03;2.00;;;;;;;;;;5081374;28;20507;-62
2023/07/19 12:11:40;;;;;;;5.10;2.57;;;;;;;;;;5080596;28;20660;-62
2023/07/19 12:14:07;;;;;;;6.77;2.60;;;;;;;;;;5080514;28;20444;-62
2023/07/19 12:16:34;;;;;;;4.03;2.03;;;;;;;;;;5082016;28;20564;-62
2023/07/19 12:19:01;;;;;;;5.97;2.37;;;;;;;;;;5081310;28;20470;-62
2023/07/19 12:21:27;;;;;;;4.10;2.20;;;;;;;;;;5080790;28;20471;-62
2023/07/19 12:23:53;;;;;;;3.63;2.07;;;;;;;;;;5080663;28;20472;-62
2023/07/19 12:26:21;;;;;;;5.37;2.20;;;;;;;;;;5081229;28;21008;-62
2023/07/19 12:28:47;;;;;;;4.83;1.87;;;;;;;;;;5080364;28;20455;-62
2023/07/19 12:31:16;;;;;;;9.93;2.70;;;;;;;;;;5081485;28;20467;-62
2023/07/19 12:33:44;;;;;;;5.17;2.27;;;;;;;;;;5081236;28;20448;-62
2023/07/19 12:36:10;;;;;;;4.57;2.40;;;;;;;;;;5083606;28;20515;-63
2023/07/19 12:38:37;;;;;;;6.57;2.07;;;;;;;;;;5078066;28;20451;-62
2023/07/19 12:41:03;;;;;;;4.83;2.20;;;;;;;;;;5081194;28;20458;-63
2023/07/19 12:43:29;;;;;;;4.37;1.80;;;;;;;;;;5079528;28;20454;-63
2023/07/19 12:45:56;;;;;;;5.33;2.43;;;;;;;;;;5080611;28;20472;-63
2023/07/19 12:48:22;;;;;;;6.70;2.03;;;;;;;;;;5079500;28;20543;-63
2023/07/19 12:50:50;;;;;;;5.43;2.13;;;;;;;;;;5072003;28;20499;-63
2023/07/19 12:53:18;;;;;;;5.03;2.30;;;;;;;;;;5081052;28;20723;-63
2023/07/19 12:55:46;;;;;;;8.47;2.30;;;;;;;;;;5079082;28;20454;-63
2023/07/19 12:58:13;;;;;;;4.30;1.90;;;;;;;;;;5076536;28;20552;-62
2023/07/19 13:00:39;;;;;;;6.00;2.43;;;;;;;;;;5080559;28;20483;-62
2023/07/19 13:03:06;;;;;;;3.90;2.30;;;;;;;;;;5080526;28;20440;-62
2023/07/19 13:05:32;;;;;;;5.77;2.33;;;;;;;;;;5079206;28;20524;-63
2023/07/19 13:08:00;;;;;;;5.50;2.23;;;;;;;;;;5080411;28;20452;-63
2023/07/19 13:10:27;;;;;;;12.80;2.40;;;;;;;;;;5080344;28;20459;-62
2023/07/19 13:12:54;;;;;;;3.50;1.83;;;;;;;;;;5079144;28;20542;-63
2023/07/19 13:15:20;;;;;;;5.33;2.17;;;;;;;;;;5080132;28;20550;-63
2023/07/19 13:17:46;;;;;;;4.97;2.10;;;;;;;;;;5081368;28;20980;-62
2023/07/19 13:20:13;;;;;;;4.80;2.37;;;;;;;;;;5080461;28;20463;-63
2023/07/19 13:22:39;;;;;;;7.57;2.20;;;;;;;;;;5081243;28;20463;-63
2023/07/19 13:25:08;;;;;;;4.70;1.97;;;;;;;;;;5080496;28;20444;-62
2023/07/19 13:27:34;;;;;;;4.83;2.33;;;;;;;;;;5079655;28;20478;-62
2023/07/19 13:30:01;;;;;;;4.33;2.67;;;;;;;;;;5072299;28;20462;-63
2023/07/19 13:32:27;;;;;;;5.10;2.43;;;;;;;;;;5081294;28;20448;-62
2023/07/19 13:34:54;;;;;;;4.23;1.97;;;;;;;;;;5079702;28;20483;-62
2023/07/19 13:37:20;;;;;;;4.63;2.53;;;;;;;;;;5079648;28;20447;-62
2023/07/19 13:39:47;;;;;;;5.30;2.30;;;;;;;;;;5080018;28;20550;-62
2023/07/19 13:42:15;;;;;;;7.37;3.40;;;;;;;;;;5078890;28;20543;-62
2023/07/19 13:44:42;;;;;;;5.17;2.50;;;;;;;;;;5080101;28;20447;-62
2023/07/19 13:47:08;;;;;;;3.47;2.20;;;;;;;;;;5079328;28;20599;-62
2023/07/19 13:49:35;;;;;;;3.53;2.27;;;;;;;;;;5079135;28;20538;-62
2023/07/19 13:52:01;;;;;;;4.53;2.40;;;;;;;;;;5081139;28;20448;-62
2023/07/19 13:54:28;;;;;;;3.40;2.47;;;;;;;;;;5080416;28;20451;-62
2023/07/19 13:56:57;;;;;;;6.50;2.20;;;;;;;;;;5078776;28;20451;-62
2023/07/19 13:59:25;;;;;;;3.37;2.30;;;;;;;;;;5079882;28;20491;-62
2023/07/19 14:01:55;;;;;;;4.30;2.47;;;;;;;;;;5077483;28;20447;-62
2023/07/19 14:04:21;;;;;;;3.10;2.17;;;;;;;;;;5080194;28;20463;-62
2023/07/19 14:06:48;;;;;;;3.30;1.87;;;;;;;;;;5075992;28;20560;-62
2023/07/19 14:09:15;;;;;;;6.70;2.40;;;;;;;;;;5067291;28;20480;-62
2023/07/19 14:11:41;;;;;;;3.83;1.60;;;;;;;;;;5067868;28;20730;-62
2023/07/19 14:14:07;;;;;;;6.63;2.20;;;;;;;;;;5079626;28;20480;-62
2023/07/19 14:16:35;;;;;;;4.00;2.40;;;;;;;;;;5079566;28;20517;-62
2023/07/19 14:19:02;;;;;;;5.13;2.17;;;;;;;;;;5068108;28;20447;-62
2023/07/19 14:21:28;;;;;;;4.43;2.13;;;;;;;;;;5079207;28;20481;-62
2023/07/19 14:23:54;;;;;;;3.43;1.60;;;;;;;;;;5078890;28;20452;-62
2023/07/19 14:26:23;;;;;;;6.70;2.07;;;;;;;;;;5077536;28;20523;-62
2023/07/19 14:28:49;;;;;;;8.97;2.43;;;;;;;;;;5079151;28;20471;-63
2023/07/19 14:31:16;;;;;;;5.30;2.47;;;;;;;;;;5079673;28;20538;-62
2023/07/19 14:33:44;;;;;;;4.10;1.87;;;;;;;;;;5078261;28;20475;-62
2023/07/19 14:36:10;;;;;;;5.30;2.40;;;;;;;;;;5078769;28;20511;-62
2023/07/19 14:38:36;;;;;;;5.30;2.23;;;;;;;;;;5078986;28;20750;-62
2023/07/19 14:41:03;;;;;;;3.67;2.50;;;;;;;;;;5078977;28;20510;-62